Nord Imagination — 3FIA8 — position and weather

sailwx.info

Track history (hours):
 
Tides and Currents Weather Stations Pressure Air Temp Water Temp Dewpoint Dewpoint Depression Visibility Wind Speed Wind Dir Waves Ship Positions

Nord Imagination

Last reported at 2017-Apr-09 00:33 UTC. Time now 2017-Apr-25 16:21 UTC.
Position N 07°24' W 015°14'.
Warning: this ship's position is 16 days out of date.

Length 179 m; draft 11.8 m.

Type: Ship (hazmat cat D). MMSI: 354828000.

Date/timePositionNaut miles runAvg speedWind from/ knotsBaromVisibWave heightAir tempDewpointWater temp
2017-Apr-09 00:33N 07°24' W 015°14'112.5
2017-Apr-09 00:30N 07°25' W 015°14'612.6
2017-Apr-09 00:00N 07°29' W 015°19'812.7
2017-Apr-08 23:24N 07°34' W 015°25'512.8
2017-Apr-08 23:00N 07°38' W 015°29'612.7
2017-Apr-08 22:30N 07°42' W 015°33'612.5
2017-Apr-08 22:00N 07°46' W 015°38'612.4
2017-Apr-08 21:30N 07°50' W 015°43'612.4
2017-Apr-08 21:00N 07°55' W 015°47'612.3
2017-Apr-08 20:30N 07°59' W 015°52'612.3
2017-Apr-08 20:00N 08°03' W 015°57'1112.4
2017-Apr-08 19:05N 08°11' W 016°05'112.3
2017-Apr-08 19:00N 08°12' W 016°05'612.2
2017-Apr-08 18:28N 08°16' W 016°10'612.1
2017-Apr-08 17:59N 08°20' W 016°15'612.1
2017-Apr-08 17:30N 08°24' W 016°19'612.1
2017-Apr-08 17:00N 08°28' W 016°24'612.1
2017-Apr-08 16:29N 08°32' W 016°28'612.2
2017-Apr-08 16:00N 08°36' W 016°33'612.1
2017-Apr-08 15:30N 08°40' W 016°38'612.1
2017-Apr-08 15:00N 08°44' W 016°42'1212.2
2017-Apr-08 14:00N 08°52' W 016°51'612.4
2017-Apr-08 13:30N 08°56' W 016°56'612.1
2017-Apr-08 13:00N 09°00' W 017°00'612.4
2017-Apr-08 12:30N 09°06' W 017°03'612.6
2017-Apr-08 12:00N 09°12' W 017°05'612.6
2017-Apr-08 11:30N 09°18' W 017°08'3513.2
2017-Apr-08 08:51N 09°50' W 017°22'514.2
2017-Apr-08 08:30N 09°54' W 017°24'2513.3
2017-Apr-08 06:38N 10°17' W 017°34'212.4
2017-Apr-08 06:30N 10°18' W 017°35'29212.3
2017-Apr-07 06:46N 15°07' W 018°20'5213.3
2017-Apr-07 02:52N 15°58' W 018°20'513.3
2017-Apr-07 02:30N 16°03' W 018°20'  
2017-Apr-04 20:54N 27°11' W 015°23'3013.8
2017-Apr-04 18:46N 27°39' W 015°12'413.5
2017-Apr-04 18:29N 27°43' W 015°11'613.4
2017-Apr-04 18:01N 27°49' W 015°08'713.5
2017-Apr-04 17:30N 27°55' W 015°05'713.6
2017-Apr-04 17:01N 28°01' W 015°03'713.7
2017-Apr-04 16:31N 28°08' W 015°00'713.9
2017-Apr-04 16:00N 28°14' W 014°58'713.8
2017-Apr-04 15:30N 28°21' W 014°55'713.9
2017-Apr-04 15:00N 28°28' W 014°53'1414.0
2017-Apr-04 14:00N 28°41' W 014°49'714.0
2017-Apr-04 13:29N 28°48' W 014°47'713.9
2017-Apr-04 13:00N 28°55' W 014°45'713.8
2017-Apr-04 12:29N 29°02' W 014°43'714.0
2017-Apr-04 12:00N 29°08' W 014°41'714.2
2017-Apr-04 11:30N 29°15' W 014°39'713.9
2017-Apr-04 11:01N 29°22' W 014°37'713.9
2017-Apr-04 10:30N 29°29' W 014°36'713.7
2017-Apr-04 10:00N 29°35' W 014°34'713.5
2017-Apr-04 09:30N 29°42' W 014°33'26013.6
2017-Apr-03 14:25N 33°55' W 013°25'1213.6
2017-Apr-03 13:30N 34°07' W 013°21'713.6
2017-Apr-03 13:00N 34°14' W 013°19'1313.3
2017-Apr-03 12:00N 34°27' W 013°16'612.8
2017-Apr-03 11:30N 34°33' W 013°15'612.9
2017-Apr-03 11:00N 34°39' W 013°13'713.2
2017-Apr-03 10:30N 34°46' W 013°12'713.4
2017-Apr-03 10:00N 34°52' W 013°10'713.4
2017-Apr-03 09:30N 34°59' W 013°08'713.2
2017-Apr-03 09:00N 35°06' W 013°07'713.4
2017-Apr-03 08:29N 35°12' W 013°05'613.2
2017-Apr-03 08:00N 35°18' W 013°03'613.0
2017-Apr-03 07:30N 35°25' W 013°01'612.6
2017-Apr-03 07:00N 35°31' W 012°59'612.7
2017-Apr-03 06:30N 35°37' W 012°58'612.8
2017-Apr-03 06:00N 35°43' W 012°56'712.8
2017-Apr-03 05:26N 35°50' W 012°54'612.9
2017-Apr-03 05:00N 35°56' W 012°52'613.0
2017-Apr-03 04:30N 36°02' W 012°51'713.2
2017-Apr-03 04:00N 36°09' W 012°49'712.8
2017-Apr-03 03:30N 36°15' W 012°47'612.6
2017-Apr-03 03:00N 36°21' W 012°45'612.5
2017-Apr-03 02:30N 36°27' W 012°44'712.7
2017-Apr-03 02:00N 36°34' W 012°43'613.1
2017-Apr-03 01:30N 36°40' W 012°41'612.6
2017-Apr-03 01:00N 36°46' W 012°40'712.7
2017-Apr-03 00:30N 36°52' W 012°38'812.6
2017-Apr-02 23:53N 36°60' W 012°35'612.9
2017-Apr-02 23:26N 37°05' W 012°33'512.9
2017-Apr-02 23:00N 37°11' W 012°31'712.9
2017-Apr-02 22:30N 37°17' W 012°29'612.8
2017-Apr-02 22:00N 37°23' W 012°28'612.7
2017-Apr-02 21:30N 37°29' W 012°26'612.7
2017-Apr-02 21:00N 37°36' W 012°24'612.5
2017-Apr-02 20:30N 37°42' W 012°23'612.2
2017-Apr-02 20:00N 37°48' W 012°21'612.1
2017-Apr-02 19:29N 37°54' W 012°19'612.1
2017-Apr-02 19:00N 37°59' W 012°18'612.1
2017-Apr-02 18:30N 38°05' W 012°16'612.4
2017-Apr-02 18:00N 38°11' W 012°14'612.3
2017-Apr-02 17:30N 38°17' W 012°13'612.4
2017-Apr-02 17:00N 38°24' W 012°11'612.4
2017-Apr-02 16:30N 38°30' W 012°09'612.6
2017-Apr-02 16:00N 38°36' W 012°08'612.6
2017-Apr-02 15:30N 38°42' W 012°06'612.4
2017-Apr-02 15:00N 38°48' W 012°05'612.2
2017-Apr-02 14:30N 38°54' W 012°03'1212.4
2017-Apr-02 13:30N 39°06' W 011°60'612.7
2017-Apr-02 13:00N 39°12' W 011°58'  
2017-Mar-30 17:28N 49°44' W 003°40'1011.0
2017-Mar-30 16:33N 49°49' W 003°27'1312.9
2017-Mar-30 15:33N 49°56' W 003°10'1414.2
2017-Mar-30 14:33N 50°01' W 002°49'1514.2
2017-Mar-30 13:32N 50°06' W 002°28'1212.6
2017-Mar-30 12:33N 50°09' W 002°09'1010.4
2017-Mar-30 11:33N 50°11' W 001°54'9 8.6
2017-Mar-30 10:34N 50°14' W 001°41'8 7.7
2017-Mar-30 09:33N 50°15' W 001°29'8 7.5
2017-Mar-30 08:33N 50°17' W 001°17'9 8.9
2017-Mar-30 07:33N 50°19' W 001°04'1211.9
2017-Mar-30 06:34N 50°22' W 000°46'1413.7
2017-Mar-30 05:33N 50°26' W 000°26'1413.9
2017-Mar-30 04:33N 50°30' W 000°04'1413.9
2017-Mar-30 03:33N 50°34' E 000°17'1313.0
2017-Mar-30 02:33N 50°39' E 000°36'1212.0
2017-Mar-30 01:33N 50°45' E 000°51'1110.7
2017-Mar-30 00:33N 50°52' E 001°05'  
Track history (hours):
 
Tides and Currents Weather Stations Pressure Air Temp Water Temp Dewpoint Dewpoint Depression Visibility Wind Speed Wind Dir Waves Ship Positions

Nord Imagination

Last reported at 2017-Apr-09 00:33 UTC. Time now 2017-Apr-25 16:21 UTC.
Position N 07°24' W 015°14'.
Warning: this ship's position is 16 days out of date.

Length 179 m; draft 11.8 m.

Type: Ship (hazmat cat D). MMSI: 354828000.

Date/timePositionNaut miles runAvg speedWind from/ knotsBaromVisibWave heightAir tempDewpointWater temp
2017-Apr-09 00:33N 07°24' W 015°14'112.5
2017-Apr-09 00:30N 07°25' W 015°14'612.6
2017-Apr-09 00:00N 07°29' W 015°19'812.7
2017-Apr-08 23:24N 07°34' W 015°25'512.8
2017-Apr-08 23:00N 07°38' W 015°29'612.7
2017-Apr-08 22:30N 07°42' W 015°33'612.5
2017-Apr-08 22:00N 07°46' W 015°38'612.4
2017-Apr-08 21:30N 07°50' W 015°43'612.4
2017-Apr-08 21:00N 07°55' W 015°47'612.3
2017-Apr-08 20:30N 07°59' W 015°52'612.3
2017-Apr-08 20:00N 08°03' W 015°57'1112.4
2017-Apr-08 19:05N 08°11' W 016°05'112.3
2017-Apr-08 19:00N 08°12' W 016°05'612.2
2017-Apr-08 18:28N 08°16' W 016°10'612.1
2017-Apr-08 17:59N 08°20' W 016°15'612.1
2017-Apr-08 17:30N 08°24' W 016°19'612.1
2017-Apr-08 17:00N 08°28' W 016°24'612.1
2017-Apr-08 16:29N 08°32' W 016°28'612.2
2017-Apr-08 16:00N 08°36' W 016°33'612.1
2017-Apr-08 15:30N 08°40' W 016°38'612.1
2017-Apr-08 15:00N 08°44' W 016°42'1212.2
2017-Apr-08 14:00N 08°52' W 016°51'612.4
2017-Apr-08 13:30N 08°56' W 016°56'612.1
2017-Apr-08 13:00N 09°00' W 017°00'612.4
2017-Apr-08 12:30N 09°06' W 017°03'612.6
2017-Apr-08 12:00N 09°12' W 017°05'612.6
2017-Apr-08 11:30N 09°18' W 017°08'3513.2
2017-Apr-08 08:51N 09°50' W 017°22'514.2
2017-Apr-08 08:30N 09°54' W 017°24'2513.3
2017-Apr-08 06:38N 10°17' W 017°34'212.4
2017-Apr-08 06:30N 10°18' W 017°35'29212.3
2017-Apr-07 06:46N 15°07' W 018°20'5213.3
2017-Apr-07 02:52N 15°58' W 018°20'513.3
2017-Apr-07 02:30N 16°03' W 018°20'  
2017-Apr-04 20:54N 27°11' W 015°23'3013.8
2017-Apr-04 18:46N 27°39' W 015°12'413.5
2017-Apr-04 18:29N 27°43' W 015°11'613.4
2017-Apr-04 18:01N 27°49' W 015°08'713.5
2017-Apr-04 17:30N 27°55' W 015°05'713.6
2017-Apr-04 17:01N 28°01' W 015°03'713.7
2017-Apr-04 16:31N 28°08' W 015°00'713.9
2017-Apr-04 16:00N 28°14' W 014°58'713.8
2017-Apr-04 15:30N 28°21' W 014°55'713.9
2017-Apr-04 15:00N 28°28' W 014°53'1414.0
2017-Apr-04 14:00N 28°41' W 014°49'714.0
2017-Apr-04 13:29N 28°48' W 014°47'713.9
2017-Apr-04 13:00N 28°55' W 014°45'713.8
2017-Apr-04 12:29N 29°02' W 014°43'714.0
2017-Apr-04 12:00N 29°08' W 014°41'714.2
2017-Apr-04 11:30N 29°15' W 014°39'713.9
2017-Apr-04 11:01N 29°22' W 014°37'713.9
2017-Apr-04 10:30N 29°29' W 014°36'713.7
2017-Apr-04 10:00N 29°35' W 014°34'713.5
2017-Apr-04 09:30N 29°42' W 014°33'26013.6
2017-Apr-03 14:25N 33°55' W 013°25'1213.6
2017-Apr-03 13:30N 34°07' W 013°21'713.6
2017-Apr-03 13:00N 34°14' W 013°19'1313.3
2017-Apr-03 12:00N 34°27' W 013°16'612.8
2017-Apr-03 11:30N 34°33' W 013°15'612.9
2017-Apr-03 11:00N 34°39' W 013°13'713.2
2017-Apr-03 10:30N 34°46' W 013°12'713.4
2017-Apr-03 10:00N 34°52' W 013°10'713.4
2017-Apr-03 09:30N 34°59' W 013°08'713.2
2017-Apr-03 09:00N 35°06' W 013°07'713.4
2017-Apr-03 08:29N 35°12' W 013°05'613.2
2017-Apr-03 08:00N 35°18' W 013°03'613.0
2017-Apr-03 07:30N 35°25' W 013°01'612.6
2017-Apr-03 07:00N 35°31' W 012°59'612.7
2017-Apr-03 06:30N 35°37' W 012°58'612.8
2017-Apr-03 06:00N 35°43' W 012°56'712.8
2017-Apr-03 05:26N 35°50' W 012°54'612.9
2017-Apr-03 05:00N 35°56' W 012°52'613.0
2017-Apr-03 04:30N 36°02' W 012°51'713.2
2017-Apr-03 04:00N 36°09' W 012°49'712.8
2017-Apr-03 03:30N 36°15' W 012°47'612.6
2017-Apr-03 03:00N 36°21' W 012°45'612.5
2017-Apr-03 02:30N 36°27' W 012°44'712.7
2017-Apr-03 02:00N 36°34' W 012°43'613.1
2017-Apr-03 01:30N 36°40' W 012°41'612.6
2017-Apr-03 01:00N 36°46' W 012°40'712.7
2017-Apr-03 00:30N 36°52' W 012°38'812.6
2017-Apr-02 23:53N 36°60' W 012°35'612.9
2017-Apr-02 23:26N 37°05' W 012°33'512.9
2017-Apr-02 23:00N 37°11' W 012°31'712.9
2017-Apr-02 22:30N 37°17' W 012°29'612.8
2017-Apr-02 22:00N 37°23' W 012°28'612.7
2017-Apr-02 21:30N 37°29' W 012°26'612.7
2017-Apr-02 21:00N 37°36' W 012°24'612.5
2017-Apr-02 20:30N 37°42' W 012°23'612.2
2017-Apr-02 20:00N 37°48' W 012°21'612.1
2017-Apr-02 19:29N 37°54' W 012°19'612.1
2017-Apr-02 19:00N 37°59' W 012°18'612.1
2017-Apr-02 18:30N 38°05' W 012°16'612.4
2017-Apr-02 18:00N 38°11' W 012°14'612.3
2017-Apr-02 17:30N 38°17' W 012°13'612.4
2017-Apr-02 17:00N 38°24' W 012°11'612.4
2017-Apr-02 16:30N 38°30' W 012°09'612.6
2017-Apr-02 16:00N 38°36' W 012°08'612.6
2017-Apr-02 15:30N 38°42' W 012°06'612.4
2017-Apr-02 15:00N 38°48' W 012°05'612.2
2017-Apr-02 14:30N 38°54' W 012°03'1212.4
2017-Apr-02 13:30N 39°06' W 011°60'612.7
2017-Apr-02 13:00N 39°12' W 011°58'  
2017-Mar-30 17:28N 49°44' W 003°40'1011.0
2017-Mar-30 16:33N 49°49' W 003°27'1312.9
2017-Mar-30 15:33N 49°56' W 003°10'1414.2
2017-Mar-30 14:33N 50°01' W 002°49'1514.2
2017-Mar-30 13:32N 50°06' W 002°28'1212.6
2017-Mar-30 12:33N 50°09' W 002°09'1010.4
2017-Mar-30 11:33N 50°11' W 001°54'9 8.6
2017-Mar-30 10:34N 50°14' W 001°41'8 7.7
2017-Mar-30 09:33N 50°15' W 001°29'8 7.5
2017-Mar-30 08:33N 50°17' W 001°17'9 8.9
2017-Mar-30 07:33N 50°19' W 001°04'1211.9
2017-Mar-30 06:34N 50°22' W 000°46'1413.7
2017-Mar-30 05:33N 50°26' W 000°26'1413.9
2017-Mar-30 04:33N 50°30' W 000°04'1413.9
2017-Mar-30 03:33N 50°34' E 000°17'1313.0
2017-Mar-30 02:33N 50°39' E 000°36'1212.0
2017-Mar-30 01:33N 50°45' E 000°51'1110.7
2017-Mar-30 00:33N 50°52' E 001°05'  

Dump ship's entire track history